createdAt,value
2022-08-11T00:02:06.276Z,3.65
2022-08-11T00:07:20.778Z,4.22
2022-08-11T00:12:24.270Z,5.32
2022-08-11T00:17:32.807Z,4.95
2022-08-11T00:22:39.354Z,5.72
2022-08-11T00:27:43.834Z,5.30
2022-08-11T00:32:56.290Z,4.85
2022-08-11T00:38:02.628Z,5.93
2022-08-11T00:43:20.345Z,5.93
2022-08-11T00:48:31.093Z,5.78
2022-08-11T00:53:47.458Z,4.88
2022-08-11T00:59:35.318Z,8.10
2022-08-11T01:05:15.078Z,5.90
2022-08-11T01:10:56.495Z,6.32
2022-08-11T01:16:26.578Z,6.00
2022-08-11T01:22:03.828Z,7.55
2022-08-11T01:27:33.422Z,6.28
2022-08-11T01:33:20.133Z,6.47
2022-08-11T01:39:02.348Z,4.63
2022-08-11T01:44:36.278Z,5.70
2022-08-11T01:50:06.516Z,6.07
2022-08-11T01:55:16.994Z,5.10
2022-08-11T02:00:23.645Z,7.40
2022-08-11T02:05:46.129Z,5.03
2022-08-11T02:11:15.104Z,4.72
2022-08-11T02:16:29.356Z,5.68
2022-08-11T02:22:00.753Z,6.50
2022-08-11T02:27:09.684Z,7.38
2022-08-11T02:32:37.086Z,8.52
2022-08-11T02:37:51.622Z,7.18
2022-08-11T02:43:10.407Z,7.95
2022-08-11T02:48:43.875Z,6.43
2022-08-11T02:53:57.970Z,5.43
2022-08-11T02:59:27.722Z,8.27
2022-08-11T03:04:39.052Z,5.32
2022-08-11T03:09:48.453Z,6.13
2022-08-11T03:15:16.991Z,5.47
2022-08-11T03:20:33.164Z,6.85
2022-08-11T03:25:50.577Z,6.22
2022-08-11T03:31:02.989Z,5.75
2022-08-11T03:36:14.481Z,5.30
2022-08-11T03:42:03.223Z,5.28
2022-08-11T03:47:32.147Z,6.20
2022-08-11T03:52:59.811Z,4.80
2022-08-11T03:58:46.148Z,4.80
2022-08-11T04:04:11.231Z,3.97
2022-08-11T04:09:49.347Z,4.90
2022-08-11T04:15:50.889Z,4.18
2022-08-11T04:21:28.054Z,4.88
2022-08-11T04:27:19.204Z,4.20
2022-08-11T04:32:40.476Z,3.72
2022-08-11T04:38:07.393Z,4.05
2022-08-11T04:44:02.151Z,5.43
2022-08-11T04:49:54.603Z,2.90
2022-08-11T04:55:38.156Z,3.20
2022-08-11T05:01:14.300Z,4.97
2022-08-11T05:06:59.495Z,2.90
2022-08-11T05:12:33.521Z,3.22
2022-08-11T05:18:13.841Z,3.70
2022-08-11T05:23:53.024Z,5.30
2022-08-11T05:29:21.137Z,3.30
2022-08-11T05:34:46.000Z,4.10
2022-08-11T05:40:10.133Z,3.90
2022-08-11T05:46:03.999Z,4.07
2022-08-11T05:51:23.063Z,2.40
2022-08-11T05:56:35.322Z,2.30
2022-08-11T06:01:42.850Z,2.25
2022-08-11T06:06:52.488Z,2.45
2022-08-11T06:11:59.687Z,4.72
2022-08-11T06:17:06.734Z,2.17
2022-08-11T06:22:12.465Z,4.32
2022-08-11T06:27:21.545Z,2.30
2022-08-11T06:32:29.840Z,3.38
2022-08-11T06:37:46.827Z,4.32
2022-08-11T06:42:56.180Z,3.33
2022-08-11T06:48:03.181Z,2.63
2022-08-11T06:53:10.135Z,3.13
2022-08-11T06:58:34.853Z,3.90
2022-08-11T07:03:45.623Z,4.53
2022-08-11T07:09:36.835Z,3.80
2022-08-11T07:15:05.855Z,2.58
2022-08-11T07:20:30.182Z,2.75
2022-08-11T07:25:54.999Z,3.03
2022-08-11T07:31:03.068Z,2.50
2022-08-11T07:36:12.853Z,4.40
2022-08-11T07:41:18.581Z,3.43
2022-08-11T07:46:40.282Z,2.63
2022-08-11T07:52:03.301Z,5.70
2022-08-11T07:57:46.107Z,4.00
2022-08-11T08:03:08.404Z,3.08
2022-08-11T08:08:33.513Z,4.18
2022-08-11T08:13:55.617Z,6.60
2022-08-11T08:18:59.139Z,3.60
2022-08-11T08:24:05.278Z,2.45
2022-08-11T08:29:27.213Z,3.45
2022-08-11T08:39:38.980Z,3.35
2022-08-11T08:44:45.158Z,2.85
2022-08-11T08:49:51.885Z,4.25
2022-08-11T08:54:59.449Z,4.32
2022-08-11T09:00:04.077Z,2.78
2022-08-11T09:05:10.102Z,3.03
2022-08-11T09:10:17.487Z,3.60
2022-08-11T09:15:22.517Z,2.47
2022-08-11T09:20:29.483Z,4.13
2022-08-11T09:25:52.478Z,2.80
2022-08-11T09:30:56.070Z,4.13
2022-08-11T09:36:23.060Z,3.42
2022-08-11T09:41:27.966Z,3.97
2022-08-11T09:46:54.059Z,2.97
2022-08-11T09:52:05.296Z,3.88
2022-08-11T09:57:27.996Z,2.47
2022-08-11T10:02:33.897Z,2.08
2022-08-11T10:07:38.444Z,4.32
2022-08-11T10:12:49.940Z,3.83
2022-08-11T10:18:17.348Z,3.83
2022-08-11T10:24:00.070Z,2.40
2022-08-11T10:29:24.713Z,3.25
2022-08-11T10:34:37.215Z,2.13
2022-08-11T10:39:45.089Z,3.97
2022-08-11T10:44:57.227Z,2.30
2022-08-11T10:50:18.968Z,4.88
2022-08-11T10:55:39.815Z,6.20
2022-08-11T11:00:46.442Z,3.28
2022-08-11T11:06:28.608Z,3.10
2022-08-11T11:11:18.757Z,2.97
2022-08-11T11:16:42.243Z,2.10
2022-08-11T11:21:47.907Z,4.03
2022-08-11T11:27:00.001Z,2.65
2022-08-11T11:32:19.538Z,1.80
2022-08-11T11:37:24.974Z,2.05
2022-08-11T11:42:29.754Z,2.92
2022-08-11T11:47:35.940Z,2.97
2022-08-11T11:52:40.918Z,2.72
2022-08-11T11:58:02.694Z,2.00
2022-08-11T12:03:11.354Z,3.05
2022-08-11T12:08:16.538Z,3.03
2022-08-11T12:13:38.029Z,2.38
2022-08-11T12:18:46.083Z,3.40
2022-08-11T12:24:07.840Z,3.00
2022-08-11T12:29:13.458Z,2.25
2022-08-11T12:34:19.079Z,3.60
2022-08-11T12:40:16.310Z,2.15
2022-08-11T12:45:31.866Z,1.90
2022-08-11T12:50:54.614Z,2.97
2022-08-11T12:56:29.336Z,3.33
2022-08-11T13:01:49.959Z,2.63
2022-08-11T13:06:55.446Z,2.58
2022-08-11T13:12:16.570Z,3.15
2022-08-11T13:17:40.203Z,2.20
2022-08-11T13:22:50.335Z,3.47
2022-08-11T13:27:57.071Z,5.20
2022-08-11T13:33:06.492Z,3.20
2022-08-11T13:38:18.458Z,3.50
2022-08-11T13:43:25.169Z,3.72
2022-08-11T13:48:28.865Z,2.88
2022-08-11T13:58:40.398Z,4.13
2022-08-11T14:04:31.117Z,2.80
2022-08-11T14:09:11.860Z,3.58
2022-08-11T14:14:22.470Z,4.15
2022-08-11T14:19:27.888Z,3.03
2022-08-11T14:24:33.727Z,2.55
2022-08-11T14:29:47.889Z,2.85
2022-08-11T14:34:53.456Z,2.72
2022-08-11T14:40:03.214Z,2.40
2022-08-11T14:45:57.581Z,3.90
2022-08-11T14:50:54.683Z,4.65
2022-08-11T14:56:17.664Z,2.08
2022-08-11T15:01:38.955Z,3.85
2022-08-11T15:06:43.147Z,3.38
2022-08-11T15:12:32.687Z,3.85
2022-08-11T15:17:43.677Z,2.85
2022-08-11T15:23:04.626Z,2.00
2022-08-11T15:28:28.573Z,3.08
2022-08-11T15:39:08.109Z,3.50
2022-08-11T15:45:00.952Z,4.40
2022-08-11T15:50:11.884Z,2.35
2022-08-11T15:55:18.901Z,2.55
2022-08-11T16:00:42.061Z,4.20
2022-08-11T16:05:52.870Z,3.97
2022-08-11T16:10:58.827Z,3.53
2022-08-11T16:16:18.887Z,2.58
2022-08-11T16:21:26.192Z,3.25
2022-08-11T16:27:08.361Z,3.03
2022-08-11T16:32:23.311Z,4.45
2022-08-11T16:37:45.471Z,3.30
2022-08-11T16:43:11.103Z,3.53
2022-08-11T16:48:37.367Z,4.20
2022-08-11T16:53:59.683Z,4.95
2022-08-11T16:59:17.626Z,5.18
2022-08-11T17:04:48.691Z,3.88
2022-08-11T17:10:39.149Z,5.60
2022-08-11T17:15:55.785Z,8.33
2022-08-11T17:21:01.556Z,7.47
2022-08-11T17:26:06.315Z,8.52
2022-08-11T17:31:28.961Z,8.52
2022-08-11T17:36:35.225Z,6.47
2022-08-11T17:41:56.850Z,7.80
2022-08-11T17:47:17.873Z,7.20
2022-08-11T17:52:47.299Z,11.20
2022-08-11T17:58:09.586Z,10.23
2022-08-11T18:03:33.895Z,7.65
2022-08-11T18:08:59.496Z,6.03
2022-08-11T18:14:22.530Z,6.25
2022-08-11T18:19:43.379Z,9.07
2022-08-11T18:25:08.951Z,11.52
2022-08-11T18:30:30.611Z,9.32
2022-08-11T18:35:53.636Z,11.70
2022-08-11T18:41:17.635Z,10.57
2022-08-11T18:46:43.565Z,10.02
2022-08-11T18:52:11.263Z,8.95
2022-08-11T18:57:37.294Z,12.88
2022-08-11T19:03:11.486Z,7.22
2022-08-11T19:08:32.970Z,11.65
2022-08-11T19:13:56.187Z,9.32
2022-08-11T19:19:17.724Z,17.40
2022-08-11T19:24:39.010Z,14.60
2022-08-11T19:30:12.117Z,10.50
2022-08-11T19:35:35.058Z,7.20
2022-08-11T19:40:57.395Z,10.13
2022-08-11T19:46:20.824Z,8.18
2022-08-11T19:51:43.332Z,7.88
2022-08-11T19:57:05.731Z,12.40
2022-08-11T20:02:28.422Z,9.52
2022-08-11T20:07:50.784Z,11.20
2022-08-11T20:13:13.694Z,10.43
2022-08-11T20:18:46.786Z,15.43
2022-08-11T20:24:07.886Z,10.63
2022-08-11T20:29:29.825Z,12.30
2022-08-11T20:34:55.051Z,10.50
2022-08-11T20:40:17.629Z,12.35
2022-08-11T20:45:53.538Z,13.90
2022-08-11T20:51:20.415Z,10.80
2022-08-11T20:56:46.879Z,11.05
2022-08-11T21:02:09.610Z,11.90
2022-08-11T21:07:35.307Z,7.20
2022-08-11T21:13:25.234Z,9.23
2022-08-11T21:18:45.253Z,11.80
2022-08-11T21:24:09.818Z,15.45
2022-08-11T21:29:32.337Z,10.38
2022-08-11T21:34:54.009Z,13.20
2022-08-11T21:40:17.846Z,9.38
2022-08-11T21:45:39.659Z,13.85
2022-08-11T21:51:00.617Z,10.52
2022-08-11T21:56:25.541Z,8.13
2022-08-11T22:01:50.741Z,11.98
2022-08-11T22:07:12.021Z,12.63
2022-08-11T22:12:37.077Z,12.60
2022-08-11T22:17:59.330Z,10.98
2022-08-11T22:23:21.065Z,11.55
2022-08-11T22:28:44.019Z,11.65
2022-08-11T22:34:04.957Z,9.65
2022-08-11T22:39:26.830Z,7.03
2022-08-11T22:44:49.155Z,8.93
2022-08-11T22:50:15.992Z,11.80
2022-08-11T22:55:38.960Z,11.90
2022-08-11T23:01:01.558Z,11.07
2022-08-11T23:06:23.645Z,13.43
2022-08-11T23:12:05.978Z,9.30
2022-08-11T23:17:27.413Z,10.38
2022-08-11T23:22:50.731Z,11.57
2022-08-11T23:28:12.540Z,10.95
2022-08-11T23:33:36.615Z,12.10
2022-08-11T23:38:58.033Z,14.33
2022-08-11T23:44:20.463Z,12.27
2022-08-11T23:49:43.479Z,13.75
2022-08-11T23:55:04.878Z,10.40
